Time;durP1;ratioP1;P1;durP2;ratioP2;P2;SDS_P1;SDS_P2;PMS_P1;PMS_P2;Temp;Humidity;BMP_temperature;BMP_pressure;BME280_temperature;BME280_humidity;BME280_pressure;Samples;Min_cycle;Max_cycle;Signal;HPM_P1;HPM_P2
2022/12/29 00:01:42;;;;;;;27.65;14.00;;;;;;;;;;5118733;28;20110;-91
2022/12/29 00:04:11;;;;;;;26.23;14.15;;;;;;;;;;5118678;28;20026;-91
2022/12/29 00:06:38;;;;;;;26.52;13.68;;;;;;;;;;5107959;28;20042;-93
2022/12/29 00:17:55;;;;;;;28.23;14.85;;;;;;;;;;5103049;28;20412;-93
2022/12/29 00:36:53;;;;;;;24.02;14.05;;;;;;;;;;5057118;28;20032;-90
2022/12/29 00:45:07;;;;;;;27.13;13.73;;;;;;;;;;5076791;28;20106;-92
2022/12/29 00:47:33;;;;;;;24.70;13.63;;;;;;;;;;5076076;28;20341;-92
2022/12/29 00:49:59;;;;;;;23.30;13.18;;;;;;;;;;5076586;28;20407;-91
2022/12/29 00:52:26;;;;;;;23.33;13.00;;;;;;;;;;5059686;28;20024;-92
2022/12/29 00:58:13;;;;;;;;;;;;;;;;;;5076563;28;20075;-90
2022/12/29 01:00:39;;;;;;;23.05;11.82;;;;;;;;;;5059601;28;19909;-90
2022/12/29 01:03:05;;;;;;;18.27;11.35;;;;;;;;;;5059511;28;20028;-91
2022/12/29 01:05:31;;;;;;;17.63;10.80;;;;;;;;;;5067348;28;20035;-90
2022/12/29 01:07:57;;;;;;;22.85;13.93;;;;;;;;;;5039356;28;20029;-90
2022/12/29 01:13:26;;;;;;;26.70;13.43;;;;;;;;;;5077072;28;20031;-90
2022/12/29 01:15:53;;;;;;;27.52;13.07;;;;;;;;;;5097919;28;20030;-90
2022/12/29 01:18:19;;;;;;;34.85;18.60;;;;;;;;;;5098364;28;20028;-90
2022/12/29 01:20:45;;;;;;;36.75;19.17;;;;;;;;;;5105767;28;20343;-89
2022/12/29 01:23:11;;;;;;;32.13;16.90;;;;;;;;;;5107297;28;20070;-90
2022/12/29 01:28:41;;;;;;;30.15;15.20;;;;;;;;;;5099946;28;20162;-89
2022/12/29 01:31:11;;;;;;;21.20;13.05;;;;;;;;;;5107629;28;20016;-90
2022/12/29 01:33:37;;;;;;;22.13;12.45;;;;;;;;;;5096732;28;20036;-89
2022/12/29 01:36:04;;;;;;;30.10;15.50;;;;;;;;;;5109609;28;20444;-89
2022/12/29 01:38:31;;;;;;;30.50;16.27;;;;;;;;;;5117235;28;20427;-91
2022/12/29 01:40:57;;;;;;;38.92;19.48;;;;;;;;;;5117997;28;20051;-91
2022/12/29 01:43:39;;;;;;;32.50;17.13;;;;;;;;;;5116999;28;20027;-91
2022/12/29 01:46:07;;;;;;;28.08;15.10;;;;;;;;;;5102910;28;20036;-91
2022/12/29 01:48:33;;;;;;;32.47;16.80;;;;;;;;;;5103416;28;20500;-91
2022/12/29 01:50:59;;;;;;;34.60;16.73;;;;;;;;;;5118179;28;20339;-92
2022/12/29 01:53:28;;;;;;;29.45;15.43;;;;;;;;;;5115806;28;20078;-91
2022/12/29 01:59:03;;;;;;;26.63;15.23;;;;;;;;;;5104341;28;20039;-91
2022/12/29 02:01:29;;;;;;;29.67;15.95;;;;;;;;;;5115697;28;20024;-91
2022/12/29 02:03:55;;;;;;;36.53;17.40;;;;;;;;;;5096598;28;20040;-91
2022/12/29 02:06:22;;;;;;;29.30;15.32;;;;;;;;;;5097443;28;20414;-92
2022/12/29 02:08:50;;;;;;;28.40;15.20;;;;;;;;;;5097381;28;20035;-92
2022/12/29 02:14:20;;;;;;;25.85;14.38;;;;;;;;;;5097683;28;20027;-91
2022/12/29 02:17:04;;;;;;;31.27;16.33;;;;;;;;;;5097301;28;20107;-92
2022/12/29 02:19:43;;;;;;;28.98;16.08;;;;;;;;;;5100401;28;20111;-91
2022/12/29 02:22:12;;;;;;;32.20;16.35;;;;;;;;;;5101041;28;20429;-92
2022/12/29 02:24:38;;;;;;;35.47;17.67;;;;;;;;;;5100201;28;20027;-92
2022/12/29 02:27:11;;;;;;;36.38;17.60;;;;;;;;;;5106841;28;20084;-92
2022/12/29 02:29:40;;;;;;;39.60;18.15;;;;;;;;;;5121284;28;20553;-92
2022/12/29 02:32:26;;;;;;;33.60;16.80;;;;;;;;;;5120440;28;20083;-92
2022/12/29 02:35:10;;;;;;;37.85;18.75;;;;;;;;;;5039305;28;20309;-92
2022/12/29 02:37:47;;;;;;;30.88;17.00;;;;;;;;;;5022382;28;20037;-93
2022/12/29 02:40:16;;;;;;;32.30;16.63;;;;;;;;;;5022222;28;20088;-91
2022/12/29 02:42:48;;;;;;;34.72;16.25;;;;;;;;;;5031940;28;20026;-93
2022/12/29 02:45:18;;;;;;;39.17;18.50;;;;;;;;;;5019045;28;20420;-92
2022/12/29 02:47:54;;;;;;;40.55;18.95;;;;;;;;;;5019171;28;20032;-92
2022/12/29 02:50:40;;;;;;;40.28;18.95;;;;;;;;;;5003329;28;20022;-92
2022/12/29 02:53:08;;;;;;;34.80;17.08;;;;;;;;;;5038697;28;20038;-93
2022/12/29 02:55:34;;;;;;;33.30;18.17;;;;;;;;;;5039007;28;20055;-93
2022/12/29 02:58:23;;;;;;;36.13;18.95;;;;;;;;;;5022162;28;20033;-92
2022/12/29 03:00:55;;;;;;;30.98;17.35;;;;;;;;;;4960624;29;20050;-92
2022/12/29 03:03:21;;;;;;;;;;;;;;;;;;4961082;29;20461;-93
2022/12/29 03:05:48;;;;;;;29.80;16.90;;;;;;;;;;4944086;29;19918;-91
2022/12/29 03:08:23;;;;;;;29.27;16.92;;;;;;;;;;4944261;29;20038;-91
2022/12/29 03:16:47;;;;;;;28.48;16.73;;;;;;;;;;5038732;28;20383;-91
2022/12/29 03:19:18;;;;;;;29.10;16.42;;;;;;;;;;5038510;28;20037;-91
2022/12/29 03:24:38;;;;;;;33.90;17.67;;;;;;;;;;5038416;28;20080;-91
2022/12/29 03:27:06;;;;;;;37.53;18.20;;;;;;;;;;5038086;28;20049;-91
2022/12/29 03:29:36;;;;;;;38.92;19.52;;;;;;;;;;5037579;28;20060;-92
2022/12/29 03:32:03;;;;;;;41.45;20.73;;;;;;;;;;5038225;28;20049;-92
2022/12/29 03:34:30;;;;;;;46.28;22.33;;;;;;;;;;5020950;28;20072;-91
2022/12/29 03:37:01;;;;;;;47.83;22.83;;;;;;;;;;5047194;28;20032;-92
2022/12/29 03:39:27;;;;;;;55.78;24.27;;;;;;;;;;5099851;28;20032;-92
2022/12/29 03:42:00;;;;;;;44.33;21.55;;;;;;;;;;5099924;28;20023;-92
2022/12/29 03:44:34;;;;;;;41.28;20.73;;;;;;;;;;5119314;28;20016;-90
2022/12/29 03:47:00;;;;;;;39.70;20.55;;;;;;;;;;5119776;28;20461;-90
2022/12/29 03:49:26;;;;;;;37.28;19.42;;;;;;;;;;5120373;28;20028;-91
2022/12/29 03:51:52;;;;;;;35.63;18.58;;;;;;;;;;5120085;28;20103;-90
2022/12/29 03:54:18;;;;;;;32.08;18.70;;;;;;;;;;5120046;28;20076;-90
2022/12/29 04:00:06;;;;;;;31.20;18.80;;;;;;;;;;5119981;28;20034;-90
2022/12/29 04:02:32;;;;;;;33.75;19.48;;;;;;;;;;5118727;28;20028;-91
2022/12/29 04:04:58;;;;;;;29.88;18.33;;;;;;;;;;5119757;28;20030;-92
2022/12/29 04:07:24;;;;;;;28.38;18.10;;;;;;;;;;5119582;28;20467;-92
2022/12/29 04:09:50;;;;;;;30.85;17.95;;;;;;;;;;5119499;28;20035;-92
2022/12/29 04:12:16;;;;;;;33.15;17.98;;;;;;;;;;5098100;28;20064;-92
2022/12/29 04:14:43;;;;;;;34.72;18.52;;;;;;;;;;5099037;28;20031;-91
2022/12/29 04:17:09;;;;;;;40.17;19.48;;;;;;;;;;5097999;28;20043;-90
2022/12/29 04:19:35;;;;;;;51.88;22.15;;;;;;;;;;5108643;28;20142;-90
2022/12/29 04:22:01;;;;;;;62.15;23.10;;;;;;;;;;5116822;28;20622;-90
2022/12/29 04:24:27;;;;;;;85.00;27.00;;;;;;;;;;5109217;28;20032;-91
2022/12/29 04:29:57;;;;;;;501.02;107.20;;;;;;;;;;5093568;28;20134;-90
2022/12/29 04:32:23;;;;;;;713.00;167.25;;;;;;;;;;5097788;28;20425;-91
2022/12/29 04:34:49;;;;;;;448.88;113.95;;;;;;;;;;5107755;28;20417;-91
2022/12/29 04:37:15;;;;;;;280.00;81.32;;;;;;;;;;5115714;28;20031;-90
2022/12/29 04:39:41;;;;;;;177.60;55.38;;;;;;;;;;5098276;28;20028;-91
2022/12/29 04:42:07;;;;;;;130.82;48.17;;;;;;;;;;5098667;28;20099;-91
2022/12/29 04:44:33;;;;;;;143.18;47.95;;;;;;;;;;5106008;28;20044;-89
2022/12/29 04:46:59;;;;;;;143.13;43.67;;;;;;;;;;5117533;28;20022;-91
2022/12/29 04:49:25;;;;;;;155.77;41.55;;;;;;;;;;5110284;28;20046;-91
2022/12/29 04:51:51;;;;;;;169.10;42.38;;;;;;;;;;5123070;27;20098;-90
2022/12/29 04:54:17;;;;;;;215.52;54.28;;;;;;;;;;5138297;27;20031;-91
2022/12/29 04:59:47;;;;;;;145.30;37.97;;;;;;;;;;5139436;27;20069;-91
2022/12/29 05:02:13;;;;;;;118.60;35.60;;;;;;;;;;5139189;27;20023;-90
2022/12/29 05:04:39;;;;;;;128.80;35.33;;;;;;;;;;5138970;27;20424;-90
2022/12/29 05:07:05;;;;;;;75.30;27.45;;;;;;;;;;5138089;27;20023;-91
2022/12/29 05:09:31;;;;;;;43.25;23.30;;;;;;;;;;5110120;27;20085;-91
2022/12/29 05:12:16;;;;;;;43.80;22.55;;;;;;;;;;5097025;28;20112;-91
2022/12/29 05:14:42;;;;;;;72.57;29.67;;;;;;;;;;5097964;28;20032;-92
2022/12/29 05:20:12;;;;;;;49.03;26.30;;;;;;;;;;5098163;28;20035;-93
2022/12/29 05:22:38;;;;;;;75.45;35.05;;;;;;;;;;5097043;28;20030;-93
2022/12/29 05:28:08;;;;;;;54.60;27.98;;;;;;;;;;5098004;28;20023;-93
2022/12/29 05:30:34;;;;;;;41.88;23.67;;;;;;;;;;5096704;28;20052;-93
2022/12/29 05:33:00;;;;;;;39.28;22.67;;;;;;;;;;5097715;28;20022;-93
2022/12/29 05:35:26;;;;;;;38.65;23.25;;;;;;;;;;5097705;28;20041;-92
2022/12/29 05:37:52;;;;;;;40.20;23.48;;;;;;;;;;5097691;28;20024;-91
2022/12/29 05:40:18;;;;;;;44.33;22.70;;;;;;;;;;5079752;28;20042;-92
2022/12/29 05:42:44;;;;;;;40.67;23.55;;;;;;;;;;5097677;28;20111;-91
2022/12/29 05:45:10;;;;;;;40.20;24.60;;;;;;;;;;5097835;28;20020;-91
2022/12/29 05:47:36;;;;;;;41.78;24.95;;;;;;;;;;5096803;28;20329;-92
2022/12/29 05:50:03;;;;;;;40.55;25.77;;;;;;;;;;5097647;28;20020;-92
2022/12/29 05:52:41;;;;;;;41.53;24.90;;;;;;;;;;5099948;28;20048;-92
2022/12/29 05:58:48;;;;;;;54.92;29.48;;;;;;;;;;5101999;28;20357;-92
2022/12/29 06:01:14;;;;;;;44.97;25.88;;;;;;;;;;5101739;28;20103;-92
2022/12/29 06:03:40;;;;;;;50.60;25.83;;;;;;;;;;5118328;28;20019;-91
2022/12/29 06:06:09;;;;;;;53.58;28.52;;;;;;;;;;5121839;28;20032;-93
2022/12/29 06:08:35;;;;;;;52.78;29.15;;;;;;;;;;5120896;28;20038;-93
2022/12/29 06:14:05;;;;;;;47.85;26.52;;;;;;;;;;5118035;28;20066;-92
2022/12/29 06:16:31;;;;;;;46.22;26.38;;;;;;;;;;5100641;28;20028;-92
2022/12/29 06:18:57;;;;;;;46.13;27.35;;;;;;;;;;5100478;28;20024;-91
2022/12/29 06:21:23;;;;;;;44.85;25.73;;;;;;;;;;5100494;28;20023;-90
2022/12/29 06:23:49;;;;;;;55.83;30.98;;;;;;;;;;5101472;28;20020;-92
2022/12/29 06:26:15;;;;;;;161.45;51.70;;;;;;;;;;5120553;28;20101;-92
2022/12/29 06:28:41;;;;;;;300.52;71.70;;;;;;;;;;5121655;28;20030;-91
2022/12/29 06:31:09;;;;;;;475.58;100.82;;;;;;;;;;5120558;28;20367;-91
2022/12/29 06:33:35;;;;;;;458.95;102.95;;;;;;;;;;5121439;28;20099;-90
2022/12/29 06:36:01;;;;;;;202.07;58.45;;;;;;;;;;5121342;28;20020;-91
2022/12/29 06:38:28;;;;;;;215.90;61.03;;;;;;;;;;5105745;28;20059;-93
2022/12/29 06:40:54;;;;;;;226.18;69.47;;;;;;;;;;5099970;28;20040;-92
2022/12/29 06:43:20;;;;;;;328.63;98.00;;;;;;;;;;5113810;28;20020;-89
2022/12/29 06:45:46;;;;;;;365.00;112.80;;;;;;;;;;5119859;28;20122;-91
2022/12/29 06:48:12;;;;;;;264.20;88.45;;;;;;;;;;5119881;28;20023;-90
2022/12/29 06:50:38;;;;;;;223.90;76.82;;;;;;;;;;5121335;28;20031;-91
2022/12/29 06:53:04;;;;;;;210.95;73.80;;;;;;;;;;5120085;28;20163;-91
2022/12/29 06:55:30;;;;;;;165.30;65.53;;;;;;;;;;5119945;28;20051;-91
2022/12/29 06:57:57;;;;;;;120.72;52.20;;;;;;;;;;5119860;28;20023;-91
2022/12/29 07:00:23;;;;;;;92.35;44.55;;;;;;;;;;5120122;28;20119;-91
2022/12/29 07:02:50;;;;;;;80.03;42.85;;;;;;;;;;5119739;28;20019;-91
2022/12/29 07:05:17;;;;;;;63.03;35.63;;;;;;;;;;5119869;28;20019;-91
2022/12/29 07:07:43;;;;;;;63.47;35.53;;;;;;;;;;5121095;28;20030;-92
2022/12/29 07:10:10;;;;;;;55.95;33.40;;;;;;;;;;5120702;28;20048;-91
2022/12/29 07:12:36;;;;;;;58.72;32.33;;;;;;;;;;5119720;28;20023;-91
2022/12/29 07:15:02;;;;;;;54.70;31.15;;;;;;;;;;5119778;28;20329;-92
2022/12/29 07:17:28;;;;;;;51.53;29.38;;;;;;;;;;5119758;28;20027;-91
2022/12/29 07:19:54;;;;;;;50.55;29.30;;;;;;;;;;5119622;28;20422;-91
2022/12/29 07:22:20;;;;;;;60.03;32.45;;;;;;;;;;5103980;28;20032;-92
2022/12/29 07:24:46;;;;;;;88.43;47.60;;;;;;;;;;5100281;28;20030;-92
2022/12/29 07:27:12;;;;;;;75.47;39.88;;;;;;;;;;5100333;28;20020;-92
2022/12/29 07:29:38;;;;;;;180.65;62.92;;;;;;;;;;5099990;28;20101;-92
2022/12/29 07:32:05;;;;;;;246.48;86.82;;;;;;;;;;5100136;28;20024;-92
2022/12/29 07:34:31;;;;;;;108.43;50.75;;;;;;;;;;5100231;28;20048;-91
2022/12/29 07:36:57;;;;;;;93.68;49.00;;;;;;;;;;5100062;28;20371;-91
2022/12/29 07:39:23;;;;;;;90.30;44.75;;;;;;;;;;5099848;28;20039;-93
2022/12/29 07:44:52;;;;;;;88.03;45.30;;;;;;;;;;5120388;28;20360;-93
2022/12/29 07:47:19;;;;;;;81.95;44.30;;;;;;;;;;5118633;28;20028;-91
2022/12/29 07:49:45;;;;;;;78.55;43.42;;;;;;;;;;5119873;28;20069;-91
2022/12/29 07:52:11;;;;;;;84.30;45.00;;;;;;;;;;5119030;28;20028;-90
2022/12/29 07:54:37;;;;;;;76.97;42.13;;;;;;;;;;5117154;28;20031;-92
2022/12/29 07:57:22;;;;;;;79.00;45.10;;;;;;;;;;5118726;27;20052;-92
2022/12/29 07:59:48;;;;;;;81.07;43.22;;;;;;;;;;5099271;28;20060;-90
2022/12/29 08:02:14;;;;;;;82.38;44.53;;;;;;;;;;5099198;28;20024;-90
2022/12/29 08:04:40;;;;;;;88.40;45.03;;;;;;;;;;5115922;28;20019;-91
2022/12/29 08:07:06;;;;;;;80.95;42.30;;;;;;;;;;5119692;28;20027;-91
2022/12/29 08:09:32;;;;;;;68.05;37.33;;;;;;;;;;5120028;28;20301;-91
2022/12/29 08:11:58;;;;;;;75.30;36.78;;;;;;;;;;5118282;28;20030;-90
2022/12/29 08:14:24;;;;;;;65.90;35.95;;;;;;;;;;5110664;28;20126;-91
2022/12/29 08:16:50;;;;;;;56.65;34.08;;;;;;;;;;5098171;28;20032;-92
2022/12/29 08:19:16;;;;;;;62.67;35.25;;;;;;;;;;5109852;28;20023;-90
2022/12/29 08:21:42;;;;;;;53.38;33.72;;;;;;;;;;5118477;28;20045;-91
2022/12/29 08:24:09;;;;;;;65.22;38.55;;;;;;;;;;5119438;28;20034;-92
2022/12/29 08:26:35;;;;;;;63.47;36.22;;;;;;;;;;5118329;28;20031;-91
2022/12/29 08:29:01;;;;;;;64.05;37.03;;;;;;;;;;5119305;28;20101;-90
2022/12/29 08:31:27;;;;;;;67.95;37.92;;;;;;;;;;5108529;28;20043;-91
2022/12/29 08:33:53;;;;;;;62.30;36.75;;;;;;;;;;5098799;28;20024;-90
2022/12/29 08:36:19;;;;;;;63.25;36.35;;;;;;;;;;5098769;28;20031;-90
2022/12/29 08:38:45;;;;;;;66.05;37.53;;;;;;;;;;5097672;28;20040;-92
2022/12/29 08:41:11;;;;;;;66.30;36.40;;;;;;;;;;5098805;28;20065;-90
2022/12/29 08:43:37;;;;;;;68.97;37.15;;;;;;;;;;5097721;28;20318;-89
2022/12/29 08:46:03;;;;;;;58.92;34.00;;;;;;;;;;5098349;28;20410;-90
2022/12/29 08:48:29;;;;;;;60.13;33.17;;;;;;;;;;5098340;28;20028;-90
2022/12/29 08:50:55;;;;;;;59.83;33.17;;;;;;;;;;5098300;28;20059;-91
2022/12/29 08:53:21;;;;;;;67.03;33.90;;;;;;;;;;5097343;28;20023;-90
2022/12/29 08:55:48;;;;;;;62.15;33.88;;;;;;;;;;5097371;28;20047;-92
2022/12/29 08:58:16;;;;;;;56.78;33.25;;;;;;;;;;5099592;28;20024;-93
2022/12/29 09:00:43;;;;;;;57.25;33.38;;;;;;;;;;5114202;28;20023;-91
2022/12/29 09:03:09;;;;;;;51.35;31.20;;;;;;;;;;5117125;28;20045;-92
2022/12/29 09:05:35;;;;;;;52.40;29.60;;;;;;;;;;5118976;28;20047;-91
2022/12/29 09:08:01;;;;;;;46.97;29.65;;;;;;;;;;5118125;27;20027;-90
2022/12/29 09:13:30;;;;;;;51.08;30.25;;;;;;;;;;5103019;28;20073;-91
2022/12/29 09:16:00;;;;;;;51.97;30.95;;;;;;;;;;5108599;28;20020;-89
2022/12/29 09:18:27;;;;;;;50.13;30.73;;;;;;;;;;5099710;28;20023;-92
2022/12/29 09:21:11;;;;;;;52.15;31.40;;;;;;;;;;5108964;28;20056;-89
2022/12/29 09:23:37;;;;;;;45.53;29.50;;;;;;;;;;5096957;28;20024;-91
2022/12/29 09:26:04;;;;;;;51.38;31.15;;;;;;;;;;5097832;28;20020;-89
2022/12/29 09:28:30;;;;;;;69.53;37.40;;;;;;;;;;5117292;28;20045;-91
2022/12/29 09:30:57;;;;;;;64.07;34.20;;;;;;;;;;5105835;28;20066;-89
2022/12/29 09:33:24;;;;;;;61.25;33.72;;;;;;;;;;5101453;28;20028;-90
2022/12/29 09:35:51;;;;;;;64.50;35.22;;;;;;;;;;5121857;28;20039;-89
2022/12/29 09:38:17;;;;;;;61.30;33.95;;;;;;;;;;5116831;28;20138;-89
2022/12/29 09:40:45;;;;;;;60.58;33.60;;;;;;;;;;5112957;28;20080;-89
2022/12/29 09:43:23;;;;;;;50.03;28.83;;;;;;;;;;5117160;28;20318;-89
2022/12/29 09:45:52;;;;;;;50.40;30.50;;;;;;;;;;5117883;28;20023;-90
2022/12/29 09:48:23;;;;;;;61.17;32.45;;;;;;;;;;5118049;28;20378;-89
2022/12/29 09:50:53;;;;;;;72.70;35.10;;;;;;;;;;5117117;28;20059;-89
2022/12/29 09:53:26;;;;;;;63.33;32.83;;;;;;;;;;5114396;28;20321;-90
2022/12/29 09:55:54;;;;;;;60.60;31.90;;;;;;;;;;5117547;28;20119;-87
2022/12/29 09:58:23;;;;;;;63.83;33.00;;;;;;;;;;5118055;28;20024;-88
2022/12/29 10:00:52;;;;;;;66.80;33.50;;;;;;;;;;5117900;28;20340;-90
2022/12/29 10:03:20;;;;;;;67.82;35.17;;;;;;;;;;5106782;28;20043;-89
2022/12/29 10:05:49;;;;;;;74.63;37.53;;;;;;;;;;5117094;28;20496;-89
2022/12/29 10:08:21;;;;;;;72.28;38.38;;;;;;;;;;5117027;28;20027;-88
2022/12/29 10:10:53;;;;;;;66.75;37.67;;;;;;;;;;5118154;28;20028;-89
2022/12/29 10:13:35;;;;;;;56.33;32.90;;;;;;;;;;5116447;28;20317;-90
2022/12/29 10:16:13;;;;;;;55.25;30.35;;;;;;;;;;5099166;28;20137;-89
2022/12/29 10:18:45;;;;;;;55.35;29.58;;;;;;;;;;5117777;28;20024;-89
2022/12/29 10:21:21;;;;;;;56.35;29.00;;;;;;;;;;5117979;28;20073;-88
2022/12/29 10:23:52;;;;;;;52.00;29.48;;;;;;;;;;5117769;28;20027;-88
2022/12/29 10:26:20;;;;;;;50.83;31.00;;;;;;;;;;5116567;28;20034;-88
2022/12/29 10:28:49;;;;;;;49.05;26.55;;;;;;;;;;5116456;28;20050;-88
2022/12/29 10:31:24;;;;;;;47.92;28.40;;;;;;;;;;5116470;28;20035;-89
2022/12/29 10:33:54;;;;;;;48.50;27.88;;;;;;;;;;5117732;28;20514;-88
2022/12/29 10:36:34;;;;;;;50.05;27.73;;;;;;;;;;5112238;28;20059;-88
2022/12/29 10:39:12;;;;;;;61.42;34.47;;;;;;;;;;5113859;28;20028;-88
2022/12/29 10:41:45;;;;;;;63.20;33.25;;;;;;;;;;5105865;28;20107;-89
2022/12/29 10:44:14;;;;;;;49.78;29.48;;;;;;;;;;5114947;28;20061;-90
2022/12/29 10:46:40;;;;;;;43.00;25.33;;;;;;;;;;5117512;28;20023;-90
2022/12/29 10:49:07;;;;;;;42.90;26.30;;;;;;;;;;5115019;28;20115;-91
2022/12/29 10:51:38;;;;;;;50.88;28.42;;;;;;;;;;5108802;28;20028;-89
2022/12/29 10:54:10;;;;;;;65.88;38.17;;;;;;;;;;5099556;28;20032;-84
2022/12/29 10:59:40;;;;;;;42.67;27.00;;;;;;;;;;5100478;28;20039;-86
2022/12/29 11:02:12;;;;;;;40.33;25.48;;;;;;;;;;5100509;28;20410;-89
2022/12/29 11:04:55;;;;;;;42.85;25.38;;;;;;;;;;5100632;28;20402;-90
2022/12/29 11:07:22;;;;;;;45.78;27.80;;;;;;;;;;5099498;28;20032;-90
2022/12/29 11:09:48;;;;;;;38.38;24.85;;;;;;;;;;5100622;28;20070;-90
2022/12/29 11:12:20;;;;;;;39.70;24.10;;;;;;;;;;5100653;28;20028;-90
2022/12/29 11:14:46;;;;;;;39.80;24.50;;;;;;;;;;5100183;28;20175;-89
2022/12/29 11:17:18;;;;;;;38.45;25.83;;;;;;;;;;5100155;28;20039;-90
2022/12/29 11:19:44;;;;;;;41.53;25.38;;;;;;;;;;5100003;28;20028;-90
2022/12/29 11:22:15;;;;;;;42.53;27.05;;;;;;;;;;5099080;28;20016;-90
2022/12/29 11:24:45;;;;;;;43.78;27.70;;;;;;;;;;5099105;28;20027;-89
2022/12/29 11:27:15;;;;;;;45.05;28.25;;;;;;;;;;5100156;28;20024;-90
2022/12/29 11:29:42;;;;;;;50.75;28.80;;;;;;;;;;5100323;28;20086;-91
2022/12/29 11:32:18;;;;;;;51.00;28.33;;;;;;;;;;5098883;28;20032;-87
2022/12/29 11:34:44;;;;;;;44.75;30.33;;;;;;;;;;5099800;28;20036;-87
2022/12/29 11:37:12;;;;;;;44.35;27.40;;;;;;;;;;5098809;28;20075;-92
2022/12/29 11:39:47;;;;;;;47.95;29.30;;;;;;;;;;5099565;28;20115;-93
2022/12/29 11:46:08;;;;;;;44.70;29.98;;;;;;;;;;5099847;28;20023;-88
2022/12/29 11:48:44;;;;;;;45.53;27.90;;;;;;;;;;5103340;28;20024;-91
2022/12/29 11:51:12;;;;;;;57.20;36.55;;;;;;;;;;5108978;28;20027;-89
2022/12/29 11:53:40;;;;;;;56.75;39.05;;;;;;;;;;5119104;28;20361;-89
2022/12/29 11:56:09;;;;;;;57.00;35.53;;;;;;;;;;5119901;28;20035;-91
2022/12/29 11:58:36;;;;;;;58.03;35.83;;;;;;;;;;5118772;28;20035;-89
2022/12/29 12:01:14;;;;;;;57.42;36.33;;;;;;;;;;5119834;28;20038;-90
2022/12/29 12:03:44;;;;;;;56.63;36.08;;;;;;;;;;5119753;28;20015;-92
2022/12/29 12:06:13;;;;;;;54.67;36.42;;;;;;;;;;5107599;28;20103;-87
2022/12/29 12:08:42;;;;;;;57.90;36.88;;;;;;;;;;5106807;28;20040;-88
2022/12/29 12:11:15;;;;;;;54.17;35.47;;;;;;;;;;5112440;28;20089;-90
2022/12/29 12:13:47;;;;;;;58.45;36.90;;;;;;;;;;5108800;28;20031;-90
2022/12/29 12:16:16;;;;;;;77.57;45.15;;;;;;;;;;5103321;28;20091;-89
2022/12/29 12:18:43;;;;;;;102.00;47.53;;;;;;;;;;5119348;28;20032;-89
2022/12/29 12:21:13;;;;;;;121.03;54.47;;;;;;;;;;5118765;28;20031;-91
2022/12/29 12:23:57;;;;;;;98.18;47.78;;;;;;;;;;5118370;28;20068;-89
2022/12/29 12:26:30;;;;;;;72.88;41.25;;;;;;;;;;5117280;28;20030;-90
2022/12/29 12:29:00;;;;;;;64.32;39.22;;;;;;;;;;5118150;28;20023;-89
2022/12/29 12:31:44;;;;;;;74.55;41.70;;;;;;;;;;5118144;28;20044;-89
2022/12/29 12:34:21;;;;;;;69.28;39.53;;;;;;;;;;5118242;28;20027;-88
2022/12/29 12:36:55;;;;;;;63.60;37.72;;;;;;;;;;5097958;28;20028;-88
2022/12/29 12:39:24;;;;;;;68.78;38.58;;;;;;;;;;5098431;28;20043;-89
2022/12/29 12:41:59;;;;;;;64.15;37.40;;;;;;;;;;5119152;28;20054;-89
2022/12/29 12:44:44;;;;;;;66.25;38.25;;;;;;;;;;5117809;28;20078;-89
2022/12/29 12:47:28;;;;;;;79.00;43.03;;;;;;;;;;5117563;28;20028;-93
2022/12/29 12:50:15;;;;;;;75.20;41.92;;;;;;;;;;5119388;28;20359;-89
2022/12/29 12:52:44;;;;;;;72.68;42.40;;;;;;;;;;5119158;28;20106;-90
2022/12/29 12:55:19;;;;;;;76.13;43.72;;;;;;;;;;5118796;28;20394;-90
2022/12/29 12:58:13;;;;;;;80.50;44.83;;;;;;;;;;5117422;28;20067;-89
2022/12/29 13:00:59;;;;;;;90.72;52.90;;;;;;;;;;5117042;28;20023;-89
2022/12/29 13:03:31;;;;;;;84.70;50.22;;;;;;;;;;5056074;28;20041;-87
2022/12/29 13:06:04;;;;;;;84.13;48.20;;;;;;;;;;5039576;28;20055;-89
2022/12/29 13:08:49;;;;;;;79.13;47.47;;;;;;;;;;5055844;28;20029;-89
2022/12/29 13:14:32;;;;;;;66.50;41.70;;;;;;;;;;5036356;28;20056;-88
2022/12/29 13:17:04;;;;;;;68.95;45.25;;;;;;;;;;5036185;28;20033;-89
2022/12/29 13:19:42;;;;;;;71.25;44.13;;;;;;;;;;5046060;28;20056;-90
2022/12/29 13:22:22;;;;;;;67.43;42.13;;;;;;;;;;5055757;28;20463;-90
2022/12/29 13:24:54;;;;;;;78.25;44.30;;;;;;;;;;5032050;28;20029;-89
2022/12/29 13:27:23;;;;;;;94.82;52.20;;;;;;;;;;5039521;28;20364;-90
2022/12/29 13:29:55;;;;;;;80.75;47.70;;;;;;;;;;5039387;28;20304;-88
2022/12/29 13:32:32;;;;;;;88.80;54.03;;;;;;;;;;5039779;28;20056;-88
2022/12/29 13:35:04;;;;;;;72.15;45.25;;;;;;;;;;5056005;28;20048;-88
2022/12/29 13:37:32;;;;;;;71.65;45.45;;;;;;;;;;5039497;28;20025;-88
2022/12/29 13:40:10;;;;;;;87.32;49.70;;;;;;;;;;5067538;28;20032;-88
2022/12/29 13:42:36;;;;;;;89.70;51.67;;;;;;;;;;5098103;28;20036;-88
2022/12/29 13:45:05;;;;;;;72.90;44.63;;;;;;;;;;5098038;28;20024;-87
2022/12/29 13:47:34;;;;;;;64.95;42.88;;;;;;;;;;5096381;28;20052;-88
2022/12/29 13:50:01;;;;;;;62.75;41.08;;;;;;;;;;5114615;28;20030;-90
2022/12/29 13:52:27;;;;;;;62.30;39.05;;;;;;;;;;5104105;28;20035;-88
2022/12/29 13:55:00;;;;;;;59.80;36.60;;;;;;;;;;5112956;28;20035;-87
2022/12/29 13:57:25;;;;;;;;;;;;;;;;;;5098814;28;20413;-88
2022/12/29 13:59:55;;;;;;;58.83;37.10;;;;;;;;;;5113943;28;19945;-88
2022/12/29 14:02:21;;;;;;;62.67;39.30;;;;;;;;;;5117592;28;20020;-88
2022/12/29 14:04:56;;;;;;;77.13;42.78;;;;;;;;;;5118033;28;20099;-88
2022/12/29 14:07:22;;;;;;;74.82;43.85;;;;;;;;;;5115612;28;20034;-88
2022/12/29 14:09:51;;;;;;;76.25;45.40;;;;;;;;;;5112994;28;20444;-88
2022/12/29 14:12:23;;;;;;;75.43;43.13;;;;;;;;;;5118301;28;20031;-88
2022/12/29 14:14:49;;;;;;;76.95;42.55;;;;;;;;;;5120575;28;20039;-87
2022/12/29 14:17:18;;;;;;;67.63;40.17;;;;;;;;;;5120433;28;20031;-88
2022/12/29 14:19:45;;;;;;;60.28;40.17;;;;;;;;;;5121614;28;20356;-86
2022/12/29 14:22:11;;;;;;;62.72;40.30;;;;;;;;;;5120685;28;20050;-88
2022/12/29 14:24:43;;;;;;;70.90;40.63;;;;;;;;;;5122435;28;20020;-87
2022/12/29 14:27:12;;;;;;;76.40;43.33;;;;;;;;;;5121422;28;20062;-88
2022/12/29 14:29:41;;;;;;;81.05;49.20;;;;;;;;;;5120310;28;20070;-87
2022/12/29 14:32:31;;;;;;;76.72;46.95;;;;;;;;;;5121706;28;20019;-88
2022/12/29 14:35:01;;;;;;;90.10;51.45;;;;;;;;;;5107588;28;20063;-88
2022/12/29 14:37:28;;;;;;;84.05;50.47;;;;;;;;;;5119569;28;20042;-88
2022/12/29 14:40:14;;;;;;;86.88;49.78;;;;;;;;;;5119863;28;20050;-88
2022/12/29 14:42:41;;;;;;;75.45;45.58;;;;;;;;;;5058811;28;20037;-87
2022/12/29 14:45:22;;;;;;;78.63;45.08;;;;;;;;;;5058592;28;20108;-88
2022/12/29 14:47:50;;;;;;;80.68;46.42;;;;;;;;;;5022310;28;20068;-88
2022/12/29 14:50:19;;;;;;;82.90;48.80;;;;;;;;;;5039073;28;20056;-88
2022/12/29 14:52:53;;;;;;;83.32;48.65;;;;;;;;;;5038822;28;20037;-89
2022/12/29 14:55:31;;;;;;;88.45;47.55;;;;;;;;;;5038773;28;20059;-88
2022/12/29 14:58:01;;;;;;;87.28;47.97;;;;;;;;;;5022263;28;20037;-89
2022/12/29 15:00:37;;;;;;;87.90;50.17;;;;;;;;;;5021888;28;20037;-88
2022/12/29 15:03:18;;;;;;;79.35;45.45;;;;;;;;;;5038800;28;20022;-88
2022/12/29 15:05:47;;;;;;;86.45;50.70;;;;;;;;;;5038539;28;20021;-88
2022/12/29 15:08:13;;;;;;;90.50;55.65;;;;;;;;;;5021987;28;20033;-88
2022/12/29 15:10:53;;;;;;;143.93;80.93;;;;;;;;;;5038928;28;20117;-88
2022/12/29 15:13:24;;;;;;;189.95;100.93;;;;;;;;;;5021870;28;20510;-87
2022/12/29 15:15:52;;;;;;;193.13;102.33;;;;;;;;;;5038309;28;20305;-88
2022/12/29 15:18:26;;;;;;;203.60;105.47;;;;;;;;;;5038353;28;20060;-88
2022/12/29 15:21:02;;;;;;;197.30;100.18;;;;;;;;;;5097847;28;20032;-88
2022/12/29 15:23:29;;;;;;;164.05;87.35;;;;;;;;;;5098887;28;20292;-88
2022/12/29 15:25:59;;;;;;;207.40;107.25;;;;;;;;;;5099477;28;20314;-88
2022/12/29 15:28:26;;;;;;;944.85;542.80;;;;;;;;;;5100397;28;20028;-88
2022/12/29 15:31:06;;;;;;;244.98;137.95;;;;;;;;;;5099776;28;20044;-89
2022/12/29 15:33:37;;;;;;;1265.15;767.50;;;;;;;;;;5099908;28;20024;-87
2022/12/29 15:36:04;;;;;;;534.60;351.63;;;;;;;;;;5098538;28;20035;-88
2022/12/29 15:38:31;;;;;;;388.55;240.20;;;;;;;;;;5099707;28;20031;-88
2022/12/29 15:41:00;;;;;;;746.95;362.95;;;;;;;;;;5098977;28;20306;-88
2022/12/29 15:43:32;;;;;;;361.23;162.55;;;;;;;;;;5109219;28;20309;-89
2022/12/29 15:46:00;;;;;;;172.52;86.70;;;;;;;;;;5120544;28;20058;-89
2022/12/29 15:48:26;;;;;;;173.30;82.10;;;;;;;;;;5120027;28;20023;-88
2022/12/29 15:50:52;;;;;;;139.02;74.40;;;;;;;;;;5119982;28;20028;-88
2022/12/29 15:53:24;;;;;;;278.35;124.90;;;;;;;;;;5118838;28;20019;-88
2022/12/29 15:55:51;;;;;;;450.90;185.73;;;;;;;;;;5119765;28;20127;-88
2022/12/29 15:58:40;;;;;;;625.40;256.70;;;;;;;;;;5119489;28;20475;-88
2022/12/29 16:01:16;;;;;;;269.95;117.88;;;;;;;;;;5037504;28;20053;-88
2022/12/29 16:03:43;;;;;;;473.02;202.80;;;;;;;;;;5021009;28;20488;-88